createdAt,value
2023-02-03T00:02:19.562Z,101297.34
2023-02-03T00:04:46.153Z,101288.78
2023-02-03T00:07:13.612Z,101283.28
2023-02-03T00:09:40.447Z,101290.38
2023-02-03T00:12:07.445Z,101283.34
2023-02-03T00:14:34.048Z,101263.31
2023-02-03T00:17:00.494Z,101262.34
2023-02-03T00:19:27.008Z,101278.81
2023-02-03T00:21:53.462Z,101266.19
2023-02-03T00:24:20.776Z,101255.38
2023-02-03T00:26:47.220Z,101254.63
2023-02-03T00:29:14.766Z,101248.97
2023-02-03T00:31:41.338Z,101245.31
2023-02-03T00:34:07.891Z,101226.31
2023-02-03T00:36:34.343Z,101228.72
2023-02-03T00:39:01.623Z,101223.94
2023-02-03T00:41:29.759Z,101219.88
2023-02-03T00:43:56.252Z,101221.94
2023-02-03T00:46:22.761Z,101224.84
2023-02-03T00:48:49.232Z,101206.94
2023-02-03T00:51:15.687Z,101205.78
2023-02-03T00:53:42.192Z,101194.22
2023-02-03T00:56:12.719Z,101188.16
2023-02-03T00:58:42.406Z,101181.47
2023-02-03T01:01:08.964Z,101181.06
2023-02-03T01:03:35.797Z,101186.97
2023-02-03T01:06:15.608Z,101182.25
2023-02-03T01:08:42.583Z,101184.59
2023-02-03T01:11:10.519Z,101168.75
2023-02-03T01:13:37.691Z,101157.06
2023-02-03T01:16:07.761Z,101156.66
2023-02-03T01:18:34.311Z,101144.25
2023-02-03T01:21:06.500Z,101145.38
2023-02-03T01:23:32.989Z,101135.69
2023-02-03T01:26:04.838Z,101135.13
2023-02-03T01:28:33.814Z,101122.91
2023-02-03T01:31:18.475Z,101121.91
2023-02-03T01:33:48.946Z,101131.28
2023-02-03T01:36:16.755Z,101131.28
2023-02-03T01:38:43.501Z,101125.44
2023-02-03T01:41:14.744Z,101121.63
2023-02-03T01:43:43.401Z,101124.13
2023-02-03T01:46:32.096Z,101121.66
2023-02-03T01:49:34.198Z,101120.41
2023-02-03T01:52:00.802Z,101129.22
2023-02-03T01:54:30.428Z,101094.59
2023-02-03T01:57:01.460Z,101100.75
2023-02-03T01:59:29.212Z,101110.22
2023-02-03T02:01:58.379Z,101097.44
2023-02-03T02:04:28.945Z,101100.19
2023-02-03T02:06:58.727Z,101085.38
2023-02-03T02:09:26.308Z,101082.16
2023-02-03T02:11:52.787Z,101081.72
2023-02-03T02:14:19.485Z,101058.94
2023-02-03T02:16:47.833Z,101062.66
2023-02-03T02:19:32.433Z,101050.84
2023-02-03T02:22:17.568Z,101052.53
2023-02-03T02:24:53.238Z,101059.28
2023-02-03T02:27:38.062Z,101069.50
2023-02-03T02:30:46.291Z,101068.16
2023-02-03T02:33:18.879Z,101069.03
2023-02-03T02:35:54.454Z,101068.31
2023-02-03T02:38:29.797Z,101051.88
2023-02-03T02:41:19.998Z,101062.03
2023-02-03T02:43:54.554Z,101045.78
2023-02-03T02:46:33.330Z,101057.03
2023-02-03T02:49:04.945Z,101063.94
2023-02-03T02:51:32.460Z,101041.72
2023-02-03T02:54:04.241Z,101049.19
2023-02-03T02:56:31.849Z,101045.06
2023-02-03T02:58:59.953Z,101025.22
2023-02-03T03:01:26.529Z,101023.22
2023-02-03T03:03:53.150Z,101034.03
2023-02-03T03:06:26.330Z,101021.38
2023-02-03T03:09:03.601Z,101004.50
2023-02-03T03:11:33.013Z,100997.78
2023-02-03T03:13:59.855Z,100992.56
2023-02-03T03:16:27.883Z,100988.06
2023-02-03T03:19:12.467Z,100994.22
2023-02-03T03:21:43.587Z,100984.25
2023-02-03T03:24:12.777Z,100976.97
2023-02-03T03:26:47.551Z,100980.34
2023-02-03T03:29:35.282Z,100975.31
2023-02-03T03:32:02.701Z,100979.44
2023-02-03T03:34:29.430Z,100980.13
2023-02-03T03:37:11.049Z,100971.25
2023-02-03T03:39:42.726Z,100974.34
2023-02-03T03:42:38.713Z,100979.22
2023-02-03T03:45:14.197Z,100976.59
2023-02-03T03:48:01.076Z,100975.03
2023-02-03T03:50:42.611Z,100970.22
2023-02-03T03:53:09.831Z,100964.56
2023-02-03T03:55:37.197Z,100964.31
2023-02-03T03:58:05.977Z,100956.00
2023-02-03T04:00:34.636Z,100972.44
2023-02-03T04:03:06.554Z,100953.88
2023-02-03T04:05:33.798Z,100945.03
2023-02-03T04:08:01.005Z,100951.47
2023-02-03T04:10:32.188Z,100946.09
2023-02-03T04:12:59.108Z,100949.97
2023-02-03T04:15:25.890Z,100936.47
2023-02-03T04:17:52.912Z,100925.44
2023-02-03T04:20:19.447Z,100917.72
2023-02-03T04:22:45.896Z,100912.09
2023-02-03T04:25:12.426Z,100910.78
2023-02-03T04:27:38.967Z,100906.63
2023-02-03T04:30:06.303Z,100914.69
2023-02-03T04:32:32.805Z,100907.22
2023-02-03T04:34:59.262Z,100903.31
2023-02-03T04:37:26.882Z,100905.47
2023-02-03T04:39:55.436Z,100891.09
2023-02-03T04:42:22.760Z,100906.19
2023-02-03T04:44:49.240Z,100885.34
2023-02-03T04:47:16.433Z,100892.63
2023-02-03T04:49:42.952Z,100880.16
2023-02-03T04:52:09.790Z,100885.78
2023-02-03T04:54:36.543Z,100876.06
2023-02-03T04:57:03.161Z,100864.94
2023-02-03T04:59:29.655Z,100869.09
2023-02-03T05:01:56.201Z,100876.44
2023-02-03T05:04:22.682Z,100871.41
2023-02-03T05:06:49.387Z,100890.78
2023-02-03T05:09:16.083Z,100861.09
2023-02-03T05:11:42.612Z,100865.50
2023-02-03T05:14:09.056Z,100858.38
2023-02-03T05:16:35.586Z,100844.94
2023-02-03T05:19:02.104Z,100846.69
2023-02-03T05:21:28.578Z,100835.00
2023-02-03T05:23:55.015Z,100844.66
2023-02-03T05:26:21.478Z,100828.47
2023-02-03T05:28:47.928Z,100836.00
2023-02-03T05:31:14.524Z,100827.22
2023-02-03T05:33:41.065Z,100835.31
2023-02-03T05:36:08.044Z,100812.50
2023-02-03T05:38:34.490Z,100814.44
2023-02-03T05:41:19.562Z,100811.00
2023-02-03T05:43:46.010Z,100791.63
2023-02-03T05:46:12.593Z,100797.47
2023-02-03T05:48:39.127Z,100788.69
2023-02-03T05:51:05.801Z,100781.94
2023-02-03T05:53:32.254Z,100782.03
2023-02-03T05:55:58.747Z,100787.66
2023-02-03T05:58:25.180Z,100780.22
2023-02-03T06:00:52.108Z,100766.25
2023-02-03T06:03:18.656Z,100729.63
2023-02-03T06:05:45.253Z,100772.03
2023-02-03T06:08:11.738Z,100752.19
2023-02-03T06:10:38.288Z,100754.91
2023-02-03T06:13:13.020Z,100748.38
2023-02-03T06:15:40.003Z,100743.34
2023-02-03T06:18:07.156Z,100720.22
2023-02-03T06:20:33.745Z,100730.09
2023-02-03T06:23:00.267Z,100739.69
2023-02-03T06:25:27.306Z,100735.69
2023-02-03T06:27:53.802Z,100721.44
2023-02-03T06:30:20.788Z,100723.38
2023-02-03T06:32:48.320Z,100713.56
2023-02-03T06:35:14.880Z,100724.41
2023-02-03T06:37:41.436Z,100708.53
2023-02-03T06:40:08.374Z,100707.59
2023-02-03T06:42:34.871Z,100708.09
2023-02-03T06:45:01.411Z,100721.19
2023-02-03T06:47:27.931Z,100719.72
2023-02-03T06:49:54.426Z,100712.81
2023-02-03T06:52:20.885Z,100692.22
2023-02-03T06:54:47.477Z,100709.34
2023-02-03T06:57:14.087Z,100705.59
2023-02-03T06:59:40.549Z,100705.59
2023-02-03T07:02:07.013Z,100698.41
2023-02-03T07:04:33.444Z,100697.88
2023-02-03T07:06:59.946Z,100689.63
2023-02-03T07:09:26.454Z,100714.63
2023-02-03T07:11:52.898Z,100723.75
2023-02-03T07:14:19.349Z,100720.19
2023-02-03T07:16:45.833Z,100736.13
2023-02-03T07:19:12.388Z,100747.38
2023-02-03T07:21:38.876Z,100756.56
2023-02-03T07:24:05.492Z,100764.75
2023-02-03T07:26:32.075Z,100768.50
2023-02-03T07:29:00.729Z,100740.22
2023-02-03T07:31:27.443Z,100761.25
2023-02-03T07:33:54.008Z,100750.19
2023-02-03T07:36:20.522Z,100758.16
2023-02-03T07:38:46.974Z,100755.56
2023-02-03T07:41:13.518Z,100757.28
2023-02-03T07:43:39.961Z,100770.50
2023-02-03T07:46:06.509Z,100753.94
2023-02-03T07:48:33.018Z,100761.88
2023-02-03T07:50:59.512Z,100775.06
2023-02-03T07:53:26.416Z,100779.56
2023-02-03T07:55:52.904Z,100790.22
2023-02-03T07:58:19.430Z,100788.22
2023-02-03T08:00:45.932Z,100787.56
2023-02-03T08:03:12.461Z,100787.19
2023-02-03T08:05:38.924Z,100778.09
2023-02-03T08:08:05.455Z,100779.13
2023-02-03T08:10:32.139Z,100805.91
2023-02-03T08:12:58.576Z,100804.44
2023-02-03T08:15:25.041Z,100797.72
2023-02-03T08:17:52.787Z,100803.28
2023-02-03T08:20:19.298Z,100790.41
2023-02-03T08:22:46.313Z,100811.03
2023-02-03T08:25:13.391Z,100805.78
2023-02-03T08:27:40.303Z,100817.03
2023-02-03T08:30:09.201Z,100801.34
2023-02-03T08:32:35.741Z,100800.97
2023-02-03T08:35:02.309Z,100815.69
2023-02-03T08:37:31.754Z,100807.84
2023-02-03T08:39:58.814Z,100812.59
2023-02-03T08:42:25.450Z,100818.63
2023-02-03T08:44:51.910Z,100830.56
2023-02-03T08:47:18.774Z,100812.44
2023-02-03T08:49:45.490Z,100814.03
2023-02-03T08:52:12.915Z,100821.16
2023-02-03T08:54:39.963Z,100838.16
2023-02-03T08:57:06.864Z,100828.13
2023-02-03T08:59:36.394Z,100840.19
2023-02-03T09:02:07.769Z,100841.41
2023-02-03T09:04:34.327Z,100851.53
2023-02-03T09:07:02.620Z,100852.31
2023-02-03T09:09:31.275Z,100861.78
2023-02-03T09:12:02.157Z,100873.88
2023-02-03T09:14:29.763Z,100853.47
2023-02-03T09:16:56.282Z,100872.31
2023-02-03T09:19:22.861Z,100875.53
2023-02-03T09:21:49.483Z,100879.19
2023-02-03T09:24:17.558Z,100884.63
2023-02-03T09:26:44.653Z,100865.72
2023-02-03T09:29:11.312Z,100883.81
2023-02-03T09:31:37.859Z,100881.16
2023-02-03T09:34:04.375Z,100889.19
2023-02-03T09:36:30.850Z,100895.25
2023-02-03T09:38:58.137Z,100904.09
2023-02-03T09:41:44.263Z,100910.09
2023-02-03T09:44:20.611Z,100900.84
2023-02-03T09:47:01.284Z,100902.75
2023-02-03T09:49:37.828Z,100896.63
2023-02-03T09:52:10.270Z,100904.41
2023-02-03T09:54:44.121Z,100879.66
2023-02-03T09:57:18.268Z,100914.13
2023-02-03T09:59:44.790Z,100885.56
2023-02-03T10:02:25.687Z,100910.94
2023-02-03T10:05:00.411Z,100920.97
2023-02-03T10:07:39.679Z,100920.47
2023-02-03T10:10:18.633Z,100920.22
2023-02-03T10:12:59.316Z,100930.56
2023-02-03T10:15:31.659Z,100953.94
2023-02-03T10:18:06.554Z,100944.91
2023-02-03T10:20:37.568Z,100945.56
2023-02-03T10:23:09.797Z,100964.56
2023-02-03T10:25:38.603Z,100978.00
2023-02-03T10:28:11.702Z,100964.06
2023-02-03T10:30:45.703Z,100963.22
2023-02-03T10:33:16.519Z,100978.59
2023-02-03T10:35:53.314Z,100986.56
2023-02-03T10:38:34.206Z,100966.69
2023-02-03T10:41:00.853Z,100975.47
2023-02-03T10:43:47.535Z,100964.84
2023-02-03T10:46:40.555Z,100981.06
2023-02-03T10:49:07.150Z,100985.31
2023-02-03T10:51:40.450Z,100997.38
2023-02-03T10:54:27.333Z,100968.22
2023-02-03T10:56:57.551Z,100989.25
2023-02-03T10:59:35.664Z,100987.03
2023-02-03T11:02:14.781Z,101012.00
2023-02-03T11:04:41.279Z,101028.53
2023-02-03T11:07:24.150Z,101007.44
2023-02-03T11:09:50.778Z,100998.31
2023-02-03T11:12:19.561Z,101026.59
2023-02-03T11:14:49.888Z,101013.50
2023-02-03T11:17:26.913Z,101014.56
2023-02-03T11:19:54.892Z,101013.91
2023-02-03T11:22:28.479Z,101010.69
2023-02-03T11:24:55.323Z,101012.72
2023-02-03T11:27:24.104Z,100996.97
2023-02-03T11:29:54.679Z,101021.03
2023-02-03T11:32:34.086Z,101009.34
2023-02-03T11:35:14.362Z,101006.75
2023-02-03T11:37:45.247Z,101020.66
2023-02-03T11:40:11.745Z,100992.41
2023-02-03T11:42:41.460Z,101011.78
2023-02-03T11:45:15.916Z,101000.63
2023-02-03T11:47:51.623Z,101012.72
2023-02-03T11:50:36.028Z,100989.50
2023-02-03T11:53:22.962Z,101027.59
2023-02-03T11:56:07.319Z,101040.56
2023-02-03T11:58:44.485Z,101026.97
2023-02-03T12:01:48.591Z,101036.19
2023-02-03T12:04:24.146Z,101043.91
2023-02-03T12:07:11.889Z,101029.19
2023-02-03T12:10:06.083Z,101058.66
2023-02-03T12:12:49.599Z,101038.19
2023-02-03T12:15:46.916Z,101045.63
2023-02-03T12:18:43.370Z,101037.72
2023-02-03T12:21:34.176Z,101024.06
2023-02-03T12:24:19.563Z,101032.50
2023-02-03T12:26:56.671Z,101028.06
2023-02-03T12:29:32.388Z,101038.19
2023-02-03T12:32:02.046Z,101044.66
2023-02-03T12:34:33.631Z,101042.41
2023-02-03T12:37:15.677Z,101040.47
2023-02-03T12:39:47.088Z,101032.78
2023-02-03T12:42:28.365Z,101048.94
2023-02-03T12:45:19.134Z,101046.81
2023-02-03T12:47:51.104Z,101044.34
2023-02-03T12:50:40.751Z,101025.22
2023-02-03T12:53:35.235Z,101047.59
2023-02-03T12:56:07.978Z,101050.38
2023-02-03T12:58:41.242Z,101064.56
2023-02-03T13:01:20.552Z,101060.06
2023-02-03T13:04:05.768Z,101077.31
2023-02-03T13:06:41.298Z,101065.59
2023-02-03T13:09:16.859Z,101099.63
2023-02-03T13:11:51.937Z,101081.47
2023-02-03T13:14:45.183Z,101062.03
2023-02-03T13:17:22.634Z,101081.59
2023-02-03T13:19:52.604Z,101096.72
2023-02-03T13:22:23.976Z,101071.75
2023-02-03T13:24:56.093Z,101075.06
2023-02-03T13:27:40.895Z,101068.81
2023-02-03T13:30:22.641Z,101078.19
2023-02-03T13:32:58.595Z,101091.56
2023-02-03T13:35:43.954Z,101087.69
2023-02-03T13:38:24.922Z,101088.72
2023-02-03T13:41:23.713Z,101087.34
2023-02-03T13:43:51.330Z,101098.53
2023-02-03T13:46:32.359Z,101089.59
2023-02-03T13:49:00.680Z,101096.88
2023-02-03T13:51:34.306Z,101106.53
2023-02-03T13:54:03.349Z,101088.34
2023-02-03T13:56:31.112Z,101104.69
2023-02-03T13:59:20.605Z,101102.38
2023-02-03T14:01:47.093Z,101115.56
2023-02-03T14:04:25.688Z,101119.13
2023-02-03T14:06:55.088Z,101108.41
2023-02-03T14:09:30.754Z,101101.09
2023-02-03T14:12:15.530Z,101088.75
2023-02-03T14:14:58.453Z,101100.41
2023-02-03T14:17:34.150Z,101107.38
2023-02-03T14:20:01.309Z,101094.53
2023-02-03T14:22:28.642Z,101098.66
2023-02-03T14:24:57.166Z,101090.72
2023-02-03T14:27:25.428Z,101083.47
2023-02-03T14:30:11.578Z,101123.31
2023-02-03T14:32:49.642Z,101103.69
2023-02-03T14:35:25.566Z,101109.97
2023-02-03T14:37:53.850Z,101110.34
2023-02-03T14:40:43.589Z,101097.44
2023-02-03T14:43:35.434Z,101090.91
2023-02-03T14:46:27.031Z,101121.09
2023-02-03T14:49:19.577Z,101118.41
2023-02-03T14:52:08.973Z,101117.84
2023-02-03T14:55:06.704Z,101148.00
2023-02-03T14:57:44.400Z,101150.44
2023-02-03T15:00:19.970Z,101162.50
2023-02-03T15:03:19.946Z,101168.72
2023-02-03T15:05:54.960Z,101153.66
2023-02-03T15:08:36.939Z,101171.81
2023-02-03T15:11:28.016Z,101162.50
2023-02-03T15:13:56.509Z,101192.53
2023-02-03T15:16:24.739Z,101182.16
2023-02-03T15:19:16.710Z,101194.72
2023-02-03T15:21:43.551Z,101183.50
2023-02-03T15:24:14.480Z,101197.13
2023-02-03T15:26:55.384Z,101191.28
2023-02-03T15:29:40.181Z,101202.03
2023-02-03T15:32:18.365Z,101205.09
2023-02-03T15:34:47.861Z,101191.03
2023-02-03T15:37:20.145Z,101227.19
2023-02-03T15:40:00.613Z,101209.88
2023-02-03T15:42:42.269Z,101225.44
2023-02-03T15:45:22.499Z,101222.91
2023-02-03T15:48:01.074Z,101231.97
2023-02-03T15:50:30.959Z,101228.97
2023-02-03T15:53:04.085Z,101225.84
2023-02-03T15:55:38.042Z,101225.84
2023-02-03T15:58:04.880Z,101244.25
2023-02-03T16:00:39.713Z,101255.16
2023-02-03T16:03:16.464Z,101256.28
2023-02-03T16:05:44.899Z,101262.09
2023-02-03T16:08:42.652Z,101285.72
2023-02-03T16:11:33.521Z,101282.63
2023-02-03T16:14:07.581Z,101290.69
2023-02-03T16:17:03.899Z,101294.47
2023-02-03T16:19:38.500Z,101280.44
2023-02-03T16:22:05.541Z,101299.19
2023-02-03T16:24:32.305Z,101298.13
2023-02-03T16:27:27.824Z,101304.22
2023-02-03T16:30:33.287Z,101302.38
2023-02-03T16:33:27.345Z,101308.22
2023-02-03T16:36:13.251Z,101327.44
2023-02-03T16:39:03.814Z,101335.59
2023-02-03T16:41:50.050Z,101321.41
2023-02-03T16:44:35.095Z,101343.16
2023-02-03T16:47:20.219Z,101327.31
2023-02-03T16:50:05.508Z,101327.50
2023-02-03T16:52:32.069Z,101327.78
2023-02-03T16:54:58.937Z,101317.84
2023-02-03T16:57:25.422Z,101332.13
2023-02-03T16:59:51.869Z,101334.38
2023-02-03T17:02:18.386Z,101339.63
2023-02-03T17:04:44.870Z,101335.78
2023-02-03T17:07:11.323Z,101334.72
2023-02-03T17:09:37.794Z,101338.00
2023-02-03T17:12:04.355Z,101344.06
2023-02-03T17:14:31.032Z,101364.44
2023-02-03T17:16:58.618Z,101358.72
2023-02-03T17:19:25.105Z,101366.50
2023-02-03T17:21:52.536Z,101377.41
2023-02-03T17:24:19.587Z,101379.97
2023-02-03T17:26:46.079Z,101382.03
2023-02-03T17:29:12.523Z,101395.81
2023-02-03T17:31:39.023Z,101409.25
2023-02-03T17:34:05.496Z,101405.19
2023-02-03T17:36:31.987Z,101409.91
2023-02-03T17:55:23.607Z,101460.66
2023-02-03T17:57:50.150Z,101476.66
2023-02-03T18:00:17.255Z,101468.72
2023-02-03T18:02:43.891Z,101488.81
2023-02-03T18:05:11.003Z,101485.00
2023-02-03T18:07:37.569Z,101491.63
2023-02-03T18:10:04.744Z,101490.25
2023-02-03T18:12:31.212Z,101521.75
2023-02-03T18:14:57.928Z,101512.44
2023-02-03T18:17:24.469Z,101525.53
2023-02-03T18:19:55.829Z,101519.00
2023-02-03T18:22:22.870Z,101548.06
2023-02-03T18:24:52.197Z,101542.03
2023-02-03T18:27:18.968Z,101550.09
2023-02-03T18:29:46.073Z,101548.81
2023-02-03T18:32:14.248Z,101554.34
2023-02-03T18:34:41.124Z,101571.41
2023-02-03T18:37:08.612Z,101582.31
2023-02-03T18:39:35.226Z,101587.22
2023-02-03T18:42:01.713Z,101581.31
2023-02-03T18:44:28.373Z,101590.81
2023-02-03T18:46:54.923Z,101609.50
2023-02-03T18:49:21.643Z,101609.41
2023-02-03T18:51:48.112Z,101634.22
2023-02-03T18:54:14.573Z,101640.59
2023-02-03T18:56:41.012Z,101645.03
2023-02-03T18:59:09.751Z,101652.44
2023-02-03T19:01:37.098Z,101648.81
2023-02-03T19:04:04.736Z,101660.69
2023-02-03T19:06:33.434Z,101670.53
2023-02-03T19:09:00.642Z,101684.72
2023-02-03T19:11:27.199Z,101692.28
2023-02-03T19:13:53.890Z,101708.41
2023-02-03T19:16:20.503Z,101720.22
2023-02-03T19:18:47.686Z,101736.41
2023-02-03T19:21:14.722Z,101745.69
2023-02-03T19:23:41.805Z,101749.88
2023-02-03T19:26:09.822Z,101755.63
2023-02-03T19:28:36.425Z,101766.34
2023-02-03T19:31:16.157Z,101785.88
2023-02-03T19:33:43.070Z,101792.66
2023-02-03T19:36:09.980Z,101812.34
2023-02-03T19:38:36.950Z,101807.66
2023-02-03T19:41:03.731Z,101818.16
2023-02-03T19:43:31.112Z,101827.97
2023-02-03T19:46:00.943Z,101840.53
2023-02-03T19:48:27.711Z,101852.47
2023-02-03T19:50:54.296Z,101857.56
2023-02-03T19:53:21.603Z,101872.41
2023-02-03T19:55:48.342Z,101870.38
2023-02-03T19:58:14.815Z,101882.91
2023-02-03T20:00:42.646Z,101896.13
2023-02-03T20:03:09.360Z,101908.72
2023-02-03T20:05:36.368Z,101916.63
2023-02-03T20:08:03.970Z,101929.91
2023-02-03T20:10:32.509Z,101937.94
2023-02-03T20:12:59.353Z,101943.38
2023-02-03T20:15:25.897Z,101945.81
2023-02-03T20:17:52.414Z,101958.94
2023-02-03T20:20:20.731Z,101959.03
2023-02-03T20:22:47.498Z,101965.06
2023-02-03T20:25:14.068Z,101967.97
2023-02-03T20:27:40.598Z,101981.06
2023-02-03T20:30:07.908Z,101998.69
2023-02-03T20:32:34.438Z,102008.38
2023-02-03T20:35:01.125Z,102012.16
2023-02-03T20:37:27.578Z,102025.22
2023-02-03T20:39:54.104Z,102029.81
2023-02-03T20:42:20.559Z,102045.19
2023-02-03T20:44:48.177Z,102034.59
2023-02-03T20:47:19.471Z,102043.81
2023-02-03T20:49:47.831Z,102051.41
2023-02-03T20:52:17.127Z,102059.97
2023-02-03T20:54:44.069Z,102067.53
2023-02-03T20:57:15.922Z,102081.31
2023-02-03T20:59:44.516Z,102082.34
2023-02-03T21:02:19.106Z,102093.44
2023-02-03T21:04:57.752Z,102107.66
2023-02-03T21:07:27.357Z,102111.25
2023-02-03T21:09:55.677Z,102104.25
2023-02-03T21:12:22.478Z,102116.22
2023-02-03T21:14:49.219Z,102127.13
2023-02-03T21:17:26.460Z,102129.63
2023-02-03T21:19:54.208Z,102141.94
2023-02-03T21:22:26.062Z,102147.66
2023-02-03T21:25:01.039Z,102151.53
2023-02-03T21:27:34.610Z,102163.13
2023-02-03T21:30:03.563Z,102167.84
2023-02-03T21:32:40.382Z,102175.50
2023-02-03T21:35:39.523Z,102185.31
2023-02-03T21:38:32.722Z,102187.66
2023-02-03T21:41:02.013Z,102199.13
2023-02-03T21:43:33.403Z,102203.47
2023-02-03T21:46:00.110Z,102204.41
2023-02-03T21:48:29.097Z,102216.22
2023-02-03T21:51:00.670Z,102214.22
2023-02-03T21:53:35.576Z,102221.00
2023-02-03T21:56:43.456Z,102228.69
2023-02-03T21:59:19.330Z,102232.44
2023-02-03T22:01:54.757Z,102244.88
2023-02-03T22:04:21.449Z,102260.44
2023-02-03T22:06:49.930Z,102261.13
2023-02-03T22:09:18.926Z,102269.47
2023-02-03T22:11:46.051Z,102275.91
2023-02-03T22:14:13.601Z,102270.78
2023-02-03T22:16:40.382Z,102278.09
2023-02-03T22:19:06.866Z,102283.66
2023-02-03T22:21:33.383Z,102294.41
2023-02-03T22:24:00.209Z,102302.31
2023-02-03T22:26:26.753Z,102305.69
2023-02-03T22:28:53.683Z,102315.63
2023-02-03T22:31:20.714Z,102311.78
2023-02-03T22:33:47.567Z,102323.94
2023-02-03T22:36:14.684Z,102334.38
2023-02-03T22:38:42.147Z,102336.34
2023-02-03T22:41:11.804Z,102346.53
2023-02-03T22:43:38.791Z,102363.53
2023-02-03T22:46:06.834Z,102368.16
2023-02-03T22:48:34.162Z,102381.84
2023-02-03T22:51:01.439Z,102379.53
2023-02-03T22:53:27.931Z,102380.63
2023-02-03T22:55:54.390Z,102388.31
2023-02-03T22:58:21.199Z,102405.78
2023-02-03T23:00:47.854Z,102401.50
2023-02-03T23:03:14.393Z,102409.28
2023-02-03T23:05:40.888Z,102417.38
2023-02-03T23:08:07.343Z,102421.09
2023-02-03T23:10:34.042Z,102421.09
2023-02-03T23:13:00.900Z,102435.53
2023-02-03T23:15:28.133Z,102444.38
2023-02-03T23:17:54.693Z,102460.38
2023-02-03T23:20:21.243Z,102452.16
2023-02-03T23:22:47.996Z,102461.59
2023-02-03T23:25:14.595Z,102469.78
2023-02-03T23:27:41.156Z,102470.63
2023-02-03T23:30:08.695Z,102480.25
2023-02-03T23:32:35.276Z,102487.25
2023-02-03T23:35:20.952Z,102487.25
2023-02-03T23:37:47.430Z,102499.47
2023-02-03T23:40:14.500Z,102508.56
2023-02-03T23:42:41.623Z,102511.72
2023-02-03T23:45:11.668Z,102508.34
2023-02-03T23:47:39.884Z,102518.19
2023-02-03T23:50:07.552Z,102521.06
2023-02-03T23:52:35.901Z,102528.00
2023-02-03T23:55:04.818Z,102540.00
2023-02-03T23:57:33.872Z,102541.88
